Time;durP1;ratioP1;P1;durP2;ratioP2;P2;SDS_P1;SDS_P2;PMS_P1;PMS_P2;Temp;Humidity;BMP_temperature;BMP_pressure;BME280_temperature;BME280_humidity;BME280_pressure;Samples;Min_cycle;Max_cycle;Signal;HPM_P1;HPM_P2
2023/08/24 00:01:17;;;;;;;7.72;4.40;;;24.50;98.90;;;;;;5027182;28;20210;-33
2023/08/24 00:03:49;;;;;;;7.85;4.63;;;24.50;99.00;;;;;;5021653;28;20236;-33
2023/08/24 00:06:19;;;;;;;6.82;4.75;;;24.50;99.00;;;;;;5014186;28;20212;-25
2023/08/24 00:08:49;;;;;;;7.47;4.60;;;24.50;99.00;;;;;;5032665;28;20252;-26
2023/08/24 00:11:16;;;;;;;8.38;4.93;;;24.50;99.00;;;;;;5026324;28;20266;-24
2023/08/24 00:13:52;;;;;;;7.10;4.88;;;24.40;98.90;;;;;;5042511;28;20234;-25
2023/08/24 00:16:21;;;;;;;8.70;5.07;;;24.40;99.00;;;;;;5019795;28;20491;-32
2023/08/24 00:18:53;;;;;;;7.13;5.25;;;24.40;99.00;;;;;;5037022;28;20326;-33
2023/08/24 00:21:23;;;;;;;6.47;5.13;;;24.40;99.00;;;;;;5022697;28;20254;-33
2023/08/24 00:23:53;;;;;;;7.13;5.15;;;24.40;99.00;;;;;;5023778;28;20322;-32
2023/08/24 00:26:20;;;;;;;8.23;4.80;;;24.30;99.00;;;;;;5042504;28;20315;-32
2023/08/24 00:28:48;;;;;;;5.10;4.60;;;24.30;99.00;;;;;;5025859;28;20228;-32
2023/08/24 00:31:18;;;;;;;5.82;4.72;;;24.30;99.00;;;;;;5019985;28;20204;-32
2023/08/24 00:33:45;;;;;;;5.28;4.70;;;24.30;99.00;;;;;;5026317;28;20204;-32
2023/08/24 00:36:15;;;;;;;5.88;4.60;;;24.30;99.10;;;;;;5005326;28;20205;-25
2023/08/24 00:38:50;;;;;;;6.60;4.85;;;24.30;99.10;;;;;;5016664;28;20208;-25
2023/08/24 00:41:21;;;;;;;8.20;4.57;;;24.30;99.10;;;;;;5043050;28;20232;-25
2023/08/24 00:43:50;;;;;;;7.03;5.43;;;24.30;99.10;;;;;;5025807;28;20216;-26
2023/08/24 00:46:20;;;;;;;6.88;5.43;;;24.30;99.10;;;;;;5065412;28;20234;-25
2023/08/24 00:48:47;;;;;;;8.95;5.00;;;24.30;99.20;;;;;;5055797;28;20220;-25
2023/08/24 00:51:15;;;;;;;7.13;5.22;;;24.30;99.20;;;;;;5057530;28;20218;-26
2023/08/24 00:53:48;;;;;;;10.20;5.50;;;24.20;99.10;;;;;;5068073;28;20314;-25
2023/08/24 00:56:19;;;;;;;9.07;5.53;;;24.20;99.20;;;;;;5063863;28;20253;-25
2023/08/24 00:58:47;;;;;;;7.93;5.88;;;24.20;99.20;;;;;;5074714;28;20292;-33
2023/08/24 01:01:17;;;;;;;7.18;5.38;;;24.20;99.20;;;;;;5067167;28;20588;-32
2023/08/24 01:03:47;;;;;;;7.45;5.32;;;24.20;99.20;;;;;;5061050;28;20216;-33
2023/08/24 01:06:16;;;;;;;7.35;5.25;;;24.20;99.30;;;;;;5057676;28;20206;-33
2023/08/24 01:08:43;;;;;;;8.50;5.97;;;24.20;99.30;;;;;;5048072;28;20277;-33
2023/08/24 01:11:20;;;;;;;7.60;6.15;;;24.10;99.30;;;;;;5049304;28;20208;-33
2023/08/24 01:14:06;;;;;;;6.88;5.95;;;24.10;99.30;;;;;;5078237;28;20663;-33
2023/08/24 01:16:40;;;;;;;8.10;6.10;;;24.10;99.40;;;;;;5060531;28;20300;-34
2023/08/24 01:19:45;;;;;;;9.43;6.40;;;24.10;99.40;;;;;;5055225;28;20203;-25
2023/08/24 01:22:27;;;;;;;8.05;6.53;;;24.10;99.40;;;;;;5034617;28;20777;-25
2023/08/24 01:25:04;;;;;;;9.60;7.28;;;24.10;99.40;;;;;;5063897;28;20651;-31
2023/08/24 01:27:35;;;;;;;10.68;6.63;;;24.10;99.50;;;;;;5082430;28;20191;-32
2023/08/24 01:30:06;;;;;;;9.90;6.50;;;24.10;99.40;;;;;;5062174;28;20785;-33
2023/08/24 01:32:38;;;;;;;8.85;6.53;;;24.00;99.40;;;;;;5062541;28;20200;-33
2023/08/24 01:35:08;;;;;;;9.27;7.05;;;24.10;99.50;;;;;;5054035;28;20236;-32
2023/08/24 01:37:41;;;;;;;7.78;6.25;;;24.10;99.50;;;;;;5046192;28;20601;-33
2023/08/24 01:40:27;;;;;;;9.10;6.63;;;24.10;99.50;;;;;;5056768;28;20625;-32
2023/08/24 01:43:09;;;;;;;8.90;6.20;;;24.10;99.60;;;;;;5067614;28;20261;-33
2023/08/24 01:45:40;;;;;;;5.85;5.25;;;24.10;99.70;;;;;;5068448;28;20324;-33
2023/08/24 01:48:09;;;;;;;7.45;5.78;;;24.10;99.60;;;;;;5067282;28;20285;-32
2023/08/24 01:50:37;;;;;;;8.80;5.40;;;24.10;99.60;;;;;;5077430;28;20666;-32
2023/08/24 01:53:04;;;;;;;8.95;5.43;;;24.10;99.60;;;;;;5066393;28;20204;-32
2023/08/24 01:55:34;;;;;;;8.07;5.55;;;24.10;99.60;;;;;;5067061;28;20211;-32
2023/08/24 01:58:04;;;;;;;8.18;5.97;;;24.10;99.60;;;;;;5064959;28;20208;-32
2023/08/24 02:00:31;;;;;;;9.98;6.30;;;24.10;99.70;;;;;;5055653;28;20203;-33
2023/08/24 02:02:58;;;;;;;9.60;6.65;;;24.10;99.70;;;;;;5063377;28;20219;-32
2023/08/24 02:05:27;;;;;;;9.90;6.85;;;24.10;99.70;;;;;;5066325;28;20724;-32
2023/08/24 02:07:55;;;;;;;7.22;6.00;;;24.10;99.70;;;;;;5066931;28;20196;-33
2023/08/24 02:10:24;;;;;;;6.68;5.95;;;24.10;99.70;;;;;;5064206;28;20208;-33
2023/08/24 02:12:54;;;;;;;7.28;5.72;;;24.10;99.70;;;;;;5047334;28;20354;-33
2023/08/24 02:15:21;;;;;;;8.55;6.18;;;24.10;99.80;;;;;;5056077;28;20231;-33
2023/08/24 02:17:49;;;;;;;9.07;6.18;;;24.10;99.80;;;;;;5084648;28;20621;-32
2023/08/24 02:20:19;;;;;;;9.18;6.25;;;24.10;99.80;;;;;;5075367;28;20231;-32
2023/08/24 02:22:49;;;;;;;8.18;6.55;;;24.10;99.80;;;;;;5063570;28;20230;-32
2023/08/24 02:25:20;;;;;;;7.25;6.38;;;24.10;99.90;;;;;;5067170;28;20192;-32
2023/08/24 02:27:48;;;;;;;7.85;6.63;;;24.20;99.90;;;;;;5065076;28;20200;-32
2023/08/24 02:30:16;;;;;;;8.48;5.97;;;24.10;99.90;;;;;;5075392;28;20297;-32
2023/08/24 02:32:43;;;;;;;7.78;6.30;;;24.20;99.90;;;;;;5059273;28;20278;-25
2023/08/24 02:35:13;;;;;;;12.07;6.63;;;24.20;99.90;;;;;;5048561;28;20597;-25
2023/08/24 02:37:43;;;;;;;7.65;6.25;;;24.20;99.90;;;;;;5063749;28;20253;-32
2023/08/24 02:40:11;;;;;;;8.75;5.80;;;24.20;99.90;;;;;;5065266;28;20204;-33
2023/08/24 02:42:40;;;;;;;7.63;5.68;;;24.20;99.90;;;;;;5055773;28;20202;-32
2023/08/24 02:45:08;;;;;;;8.25;6.03;;;24.20;99.90;;;;;;5052167;28;20297;-32
2023/08/24 02:47:36;;;;;;;7.00;6.22;;;24.20;99.90;;;;;;5062932;28;20720;-32
2023/08/24 02:50:06;;;;;;;7.10;5.90;;;24.20;99.90;;;;;;5060679;28;20222;-32
2023/08/24 02:52:35;;;;;;;8.90;6.13;;;24.20;99.90;;;;;;5051680;28;20675;-33
2023/08/24 02:55:03;;;;;;;9.93;6.20;;;24.20;99.90;;;;;;5057609;28;20247;-33
2023/08/24 02:57:34;;;;;;;7.70;6.72;;;24.20;99.90;;;;;;5053462;28;20754;-32
2023/08/24 03:00:03;;;;;;;9.70;6.80;;;24.10;99.90;;;;;;5064391;28;20199;-32
2023/08/24 03:02:30;;;;;;;9.18;5.93;;;24.10;99.90;;;;;;5060812;28;20244;-32
2023/08/24 03:04:58;;;;;;;10.93;6.85;;;24.10;99.90;;;;;;5052900;28;20289;-32
2023/08/24 03:07:25;;;;;;;9.57;6.65;;;24.10;99.90;;;;;;5072402;28;20747;-32
2023/08/24 03:09:57;;;;;;;7.63;6.28;;;24.00;99.90;;;;;;5057382;28;20713;-32
2023/08/24 03:12:26;;;;;;;10.07;6.47;;;24.00;99.90;;;;;;5051501;28;20781;-33
2023/08/24 03:14:54;;;;;;;8.45;6.15;;;24.00;99.90;;;;;;5063492;28;20310;-25
2023/08/24 03:17:24;;;;;;;8.65;6.35;;;24.00;99.90;;;;;;5061777;28;20273;-25
2023/08/24 03:19:53;;;;;;;8.63;6.60;;;24.00;99.90;;;;;;5069966;28;20210;-25
2023/08/24 03:22:20;;;;;;;8.05;6.30;;;23.90;99.90;;;;;;5059822;28;20496;-25
2023/08/24 03:24:47;;;;;;;8.63;6.05;;;23.90;99.90;;;;;;5073799;28;20216;-25
2023/08/24 03:27:17;;;;;;;10.27;6.45;;;23.90;99.90;;;;;;5044414;28;20301;-26
2023/08/24 03:29:48;;;;;;;7.28;6.10;;;23.90;99.90;;;;;;5060486;28;20617;-26
2023/08/24 03:32:18;;;;;;;10.25;6.32;;;23.90;99.90;;;;;;5075255;28;20841;-25
2023/08/24 03:34:53;;;;;;;8.48;6.25;;;23.90;99.90;;;;;;5064461;28;20199;-25
2023/08/24 03:37:20;;;;;;;8.90;7.05;;;23.90;99.90;;;;;;5060860;28;20242;-26
2023/08/24 03:39:52;;;;;;;8.27;6.53;;;23.80;99.90;;;;;;5062280;28;20306;-25
2023/08/24 03:42:19;;;;;;;9.77;6.95;;;23.80;99.90;;;;;;5061422;28;20235;-25
2023/08/24 03:44:53;;;;;;;8.27;6.07;;;23.80;99.90;;;;;;5065561;28;20239;-25
2023/08/24 03:47:22;;;;;;;8.70;6.40;;;23.70;99.90;;;;;;5049431;28;20199;-25
2023/08/24 03:49:52;;;;;;;8.65;6.18;;;23.70;99.90;;;;;;5043574;28;20771;-25
2023/08/24 03:52:21;;;;;;;9.98;6.88;;;23.70;99.90;;;;;;5057074;28;20690;-25
2023/08/24 03:54:51;;;;;;;8.93;7.00;;;23.60;99.90;;;;;;5080037;28;20249;-26
2023/08/24 03:57:20;;;;;;;10.25;6.88;;;23.60;99.90;;;;;;5058747;28;20207;-24
2023/08/24 03:59:47;;;;;;;7.90;6.80;;;23.50;99.90;;;;;;5065245;28;20233;-25
2023/08/24 04:02:17;;;;;;;8.45;6.55;;;23.50;99.90;;;;;;5062408;28;20249;-25
2023/08/24 04:04:44;;;;;;;8.35;6.38;;;23.50;99.90;;;;;;5064102;28;20850;-25
2023/08/24 04:07:11;;;;;;;9.63;6.50;;;23.40;99.90;;;;;;5058142;28;20243;-25
2023/08/24 04:09:38;;;;;;;7.78;6.35;;;23.40;99.90;;;;;;5069610;28;20227;-25
2023/08/24 04:12:08;;;;;;;8.38;6.13;;;23.40;99.90;;;;;;5049472;28;20265;-25
2023/08/24 04:14:38;;;;;;;6.35;5.70;;;23.30;99.90;;;;;;5061716;28;20454;-25
2023/08/24 04:17:07;;;;;;;9.38;6.18;;;23.30;99.90;;;;;;5055472;28;20761;-25
2023/08/24 04:19:40;;;;;;;9.07;6.63;;;23.30;99.90;;;;;;5049215;28;20200;-25
2023/08/24 04:22:12;;;;;;;7.45;5.97;;;23.20;99.90;;;;;;5057193;28;20221;-25
2023/08/24 04:24:41;;;;;;;7.32;6.20;;;23.20;99.90;;;;;;5055479;28;20662;-25
2023/08/24 04:27:11;;;;;;;8.25;6.18;;;23.20;99.90;;;;;;5066582;28;20296;-26
2023/08/24 04:29:43;;;;;;;6.50;5.88;;;23.20;99.90;;;;;;5084055;28;20242;-25
2023/08/24 04:32:10;;;;;;;9.00;6.38;;;23.20;99.90;;;;;;5059449;28;20208;-25
2023/08/24 04:34:37;;;;;;;8.43;6.53;;;23.10;99.90;;;;;;5055928;28;20202;-26
2023/08/24 04:37:06;;;;;;;7.32;6.22;;;23.10;99.90;;;;;;5045500;28;20196;-25
2023/08/24 04:39:37;;;;;;;7.95;5.80;;;23.10;99.90;;;;;;5058598;28;20208;-25
2023/08/24 04:42:05;;;;;;;8.63;5.80;;;23.10;99.90;;;;;;5068656;28;20209;-25
2023/08/24 04:44:33;;;;;;;8.50;5.85;;;23.10;99.90;;;;;;5063890;28;20269;-25
2023/08/24 04:47:00;;;;;;;10.20;6.07;;;23.00;99.90;;;;;;5064574;28;20205;-25
2023/08/24 04:49:29;;;;;;;9.02;5.90;;;23.00;99.90;;;;;;5076981;28;20241;-24
2023/08/24 04:51:56;;;;;;;6.85;5.53;;;23.00;99.90;;;;;;5066676;28;20272;-25
2023/08/24 04:54:24;;;;;;;6.03;5.10;;;23.00;99.90;;;;;;5046586;28;20199;-25
2023/08/24 04:56:55;;;;;;;8.93;5.95;;;23.00;99.90;;;;;;5046741;28;20234;-25
2023/08/24 04:59:23;;;;;;;6.47;5.72;;;23.00;99.90;;;;;;5050059;28;20224;-25
2023/08/24 05:01:50;;;;;;;7.82;5.57;;;23.00;99.90;;;;;;5060252;28;20209;-25
2023/08/24 05:04:19;;;;;;;7.90;5.75;;;23.00;99.90;;;;;;5064470;28;20211;-25
2023/08/24 05:06:46;;;;;;;6.97;5.65;;;23.00;99.90;;;;;;5076801;28;20239;-25
2023/08/24 05:09:16;;;;;;;7.78;5.57;;;23.00;99.90;;;;;;5059052;28;20235;-25
2023/08/24 05:11:46;;;;;;;7.32;5.57;;;23.00;99.90;;;;;;5071208;28;20257;-25
2023/08/24 05:14:13;;;;;;;7.72;5.75;;;23.10;99.90;;;;;;5068162;28;20573;-25
2023/08/24 05:16:41;;;;;;;8.48;5.50;;;23.10;99.90;;;;;;5071859;28;20216;-25
2023/08/24 05:19:10;;;;;;;8.70;5.22;;;23.10;99.90;;;;;;5065862;28;20211;-25
2023/08/24 05:21:37;;;;;;;7.22;4.78;;;23.10;99.90;;;;;;5076308;28;20192;-25
2023/08/24 05:24:07;;;;;;;7.57;5.10;;;23.10;99.90;;;;;;5050454;28;20380;-25
2023/08/24 05:26:36;;;;;;;6.07;5.00;;;23.10;99.90;;;;;;5056401;28;20257;-25
2023/08/24 05:29:06;;;;;;;12.23;4.95;;;23.20;99.90;;;;;;5050404;28;20586;-25
2023/08/24 05:31:33;;;;;;;6.72;4.53;;;23.20;99.90;;;;;;5063909;28;20203;-25
2023/08/24 05:34:05;;;;;;;5.90;4.40;;;23.20;99.90;;;;;;5046896;28;20200;-25
2023/08/24 05:36:35;;;;;;;5.53;4.22;;;23.30;99.90;;;;;;5048919;28;20813;-25
2023/08/24 05:39:04;;;;;;;7.72;4.60;;;23.30;99.90;;;;;;5064967;28;20230;-25
2023/08/24 05:41:33;;;;;;;6.55;4.45;;;23.30;99.90;;;;;;5060415;28;20207;-25
2023/08/24 05:44:00;;;;;;;7.82;4.43;;;23.30;99.90;;;;;;5066037;28;20728;-25
2023/08/24 05:46:28;;;;;;;6.53;4.45;;;23.40;99.90;;;;;;5070456;28;20699;-25
2023/08/24 05:49:01;;;;;;;5.97;4.38;;;23.40;99.90;;;;;;5070350;28;20212;-25
2023/08/24 05:51:30;;;;;;;6.15;4.18;;;23.50;99.90;;;;;;5045503;28;20559;-25
2023/08/24 05:53:58;;;;;;;6.85;4.53;;;23.50;99.90;;;;;;5061898;28;20234;-25
2023/08/24 05:56:27;;;;;;;6.50;4.10;;;23.60;99.90;;;;;;5048841;28;20203;-25
2023/08/24 05:58:59;;;;;;;9.60;4.53;;;23.70;99.90;;;;;;5079784;28;20208;-24
2023/08/24 06:01:27;;;;;;;7.38;4.55;;;23.70;99.90;;;;;;5066201;28;20218;-25
2023/08/24 06:03:54;;;;;;;5.68;4.47;;;23.70;99.90;;;;;;5071379;28;20577;-25
2023/08/24 06:06:22;;;;;;;6.97;4.45;;;23.70;99.90;;;;;;5065439;28;20211;-24
2023/08/24 06:08:49;;;;;;;5.75;4.22;;;23.80;99.90;;;;;;5061283;28;20641;-25
2023/08/24 06:11:21;;;;;;;5.95;4.05;;;23.80;99.90;;;;;;5061878;28;20223;-24
2023/08/24 06:13:55;;;;;;;5.55;4.40;;;23.80;99.90;;;;;;5054681;28;20239;-25
2023/08/24 06:16:30;;;;;;;5.93;4.00;;;23.90;99.90;;;;;;5051173;28;20281;-24
2023/08/24 06:18:59;;;;;;;9.23;4.28;;;23.90;99.90;;;;;;5066839;28;20207;-25
2023/08/24 06:21:27;;;;;;;9.07;4.68;;;23.90;99.90;;;;;;5082031;28;20203;-26
2023/08/24 06:23:56;;;;;;;8.10;4.13;;;24.00;99.90;;;;;;5079669;28;20219;-27
2023/08/24 06:26:28;;;;;;;15.13;5.32;;;24.00;99.90;;;;;;5058096;28;20211;-26
2023/08/24 06:28:55;;;;;;;11.13;4.85;;;24.00;99.90;;;;;;5060982;28;20701;-27
2023/08/24 06:31:25;;;;;;;10.85;5.40;;;24.10;99.90;;;;;;5053213;28;20318;-26
2023/08/24 06:33:57;;;;;;;8.75;4.88;;;24.10;99.90;;;;;;5077074;28;20358;-33
2023/08/24 06:36:24;;;;;;;11.98;5.38;;;24.20;99.90;;;;;;5049528;28;20510;-33
2023/08/24 06:38:54;;;;;;;10.85;4.63;;;24.20;99.90;;;;;;5052207;28;20201;-32
2023/08/24 06:41:21;;;;;;;7.65;4.40;;;24.20;99.90;;;;;;5060856;28;20227;-33
2023/08/24 06:43:48;;;;;;;8.18;4.40;;;24.30;99.90;;;;;;5044374;28;20219;-31
2023/08/24 06:46:19;;;;;;;6.88;4.40;;;24.30;99.90;;;;;;5053138;28;20212;-33
2023/08/24 06:48:46;;;;;;;6.03;4.20;;;24.40;99.90;;;;;;5054019;28;20196;-33
2023/08/24 06:51:18;;;;;;;5.70;4.30;;;24.50;99.90;;;;;;5060934;28;20763;-32
2023/08/24 06:53:46;;;;;;;5.60;4.35;;;24.50;99.90;;;;;;5045615;28;20729;-33
2023/08/24 06:56:17;;;;;;;9.00;4.50;;;24.60;99.90;;;;;;5052454;28;20294;-33
2023/08/24 06:58:47;;;;;;;6.47;4.35;;;24.70;99.90;;;;;;5049212;28;20302;-33
2023/08/24 07:01:15;;;;;;;6.03;4.30;;;24.70;99.90;;;;;;5044783;28;20266;-32
2023/08/24 07:03:43;;;;;;;7.93;4.68;;;24.80;99.90;;;;;;5048932;28;20200;-33
2023/08/24 07:06:13;;;;;;;7.85;4.63;;;24.90;99.90;;;;;;5064884;28;20200;-33
2023/08/24 07:08:40;;;;;;;13.77;5.38;;;25.00;99.90;;;;;;5070210;28;20687;-33
2023/08/24 07:11:13;;;;;;;7.50;4.22;;;25.00;99.90;;;;;;5064373;28;20228;-33
2023/08/24 07:13:40;;;;;;;8.38;4.63;;;25.10;99.90;;;;;;5060103;28;20200;-33
2023/08/24 07:16:07;;;;;;;6.85;4.07;;;25.20;99.90;;;;;;5071489;28;20642;-33
2023/08/24 07:18:37;;;;;;;6.97;4.30;;;25.20;99.90;;;;;;5053038;28;20192;-33
2023/08/24 07:21:04;;;;;;;5.97;4.25;;;25.30;99.90;;;;;;5055412;28;20204;-33
2023/08/24 07:23:31;;;;;;;8.27;4.25;;;25.40;99.90;;;;;;5047781;28;20211;-33
2023/08/24 07:25:58;;;;;;;5.00;4.13;;;25.50;99.90;;;;;;5055826;28;20630;-33
2023/08/24 07:28:26;;;;;;;8.90;4.65;;;25.50;99.90;;;;;;5049796;28;20211;-33
2023/08/24 07:30:55;;;;;;;7.72;4.10;;;25.60;99.90;;;;;;5052207;28;20212;-33
2023/08/24 07:33:27;;;;;;;7.40;3.97;;;25.70;99.90;;;;;;5073259;28;20934;-33
2023/08/24 07:35:54;;;;;;;5.85;4.30;;;25.80;99.90;;;;;;5060105;28;20200;-33
2023/08/24 07:38:24;;;;;;;9.07;4.13;;;25.90;99.90;;;;;;5069785;28;20204;-33
2023/08/24 07:40:53;;;;;;;6.07;4.03;;;26.00;99.90;;;;;;5043695;28;20216;-33
2023/08/24 07:43:20;;;;;;;8.13;4.32;;;26.10;99.90;;;;;;5063255;28;20486;-33
2023/08/24 07:45:52;;;;;;;7.40;3.65;;;26.10;99.90;;;;;;5057902;28;22226;-32
2023/08/24 07:48:22;;;;;;;6.93;4.25;;;26.20;99.90;;;;;;5069800;28;20207;-33
2023/08/24 07:50:52;;;;;;;11.68;4.78;;;26.30;99.90;;;;;;5052091;28;20223;-33
2023/08/24 07:53:19;;;;;;;10.30;4.53;;;26.40;99.90;;;;;;5057307;28;20200;-33
2023/08/24 07:55:52;;;;;;;7.03;4.65;;;26.40;99.90;;;;;;5061694;28;20199;-33
2023/08/24 07:58:23;;;;;;;11.43;4.13;;;26.50;99.90;;;;;;5063679;28;20202;-33
2023/08/24 08:00:53;;;;;;;6.75;4.07;;;26.50;99.90;;;;;;5067181;28;20254;-33
2023/08/24 08:03:23;;;;;;;5.88;3.67;;;26.60;99.90;;;;;;5048322;28;20257;-33
2023/08/24 08:05:53;;;;;;;6.40;3.78;;;26.70;99.90;;;;;;5043288;28;20211;-33
2023/08/24 08:08:23;;;;;;;5.22;4.10;;;26.70;99.90;;;;;;5045235;28;20392;-33
2023/08/24 08:11:00;;;;;;;5.78;4.00;;;26.80;99.90;;;;;;5061958;28;20235;-33
2023/08/24 08:13:30;;;;;;;5.93;4.03;;;26.90;99.90;;;;;;5062584;28;20211;-33
2023/08/24 08:16:06;;;;;;;6.10;3.53;;;26.90;99.90;;;;;;5050529;28;20253;-33
2023/08/24 08:18:34;;;;;;;6.38;3.92;;;26.90;99.90;;;;;;5063232;28;20207;-33
2023/08/24 08:21:09;;;;;;;5.68;3.85;;;27.00;99.90;;;;;;5064212;28;20207;-33
2023/08/24 08:23:39;;;;;;;6.13;4.28;;;27.00;99.90;;;;;;5046269;28;20207;-33
2023/08/24 08:26:10;;;;;;;6.88;4.38;;;27.10;99.90;;;;;;5060767;28;20591;-33
2023/08/24 08:28:39;;;;;;;5.75;3.67;;;27.10;99.90;;;;;;5064302;28;20211;-33
2023/08/24 08:31:07;;;;;;;6.78;4.03;;;27.20;99.90;;;;;;5061984;28;20227;-33
2023/08/24 08:33:34;;;;;;;5.70;3.75;;;27.20;99.90;;;;;;5049832;28;20203;-33
2023/08/24 08:36:01;;;;;;;6.68;3.65;;;27.30;99.90;;;;;;5052841;28;20612;-33
2023/08/24 08:38:28;;;;;;;5.32;3.67;;;27.30;99.90;;;;;;5064873;28;20203;-33
2023/08/24 08:41:05;;;;;;;6.15;3.85;;;27.40;99.90;;;;;;5058983;28;20642;-33
2023/08/24 08:43:33;;;;;;;4.68;3.45;;;27.40;99.90;;;;;;5058735;28;20206;-33
2023/08/24 08:46:02;;;;;;;9.07;4.00;;;27.50;99.90;;;;;;5065593;28;20247;-33
2023/08/24 08:48:37;;;;;;;6.05;3.90;;;27.50;99.90;;;;;;5061218;28;20736;-33
2023/08/24 08:51:08;;;;;;;5.93;3.53;;;27.60;99.90;;;;;;5064954;28;20258;-33
2023/08/24 08:53:37;;;;;;;6.70;3.80;;;27.70;99.90;;;;;;5061166;28;20549;-33
2023/08/24 08:56:06;;;;;;;5.47;3.53;;;27.70;99.90;;;;;;5046442;28;20254;-33
2023/08/24 08:58:36;;;;;;;21.13;5.60;;;27.80;99.90;;;;;;5055713;28;20278;-34
2023/08/24 09:01:05;;;;;;;26.33;6.18;;;27.80;99.90;;;;;;5063482;28;20209;-34
2023/08/24 09:03:34;;;;;;;35.80;9.32;;;27.80;99.90;;;;;;5063947;28;20224;-25
2023/08/24 09:06:06;;;;;;;15.30;4.82;;;27.90;99.90;;;;;;5073213;28;20669;-25
2023/08/24 09:08:34;;;;;;;30.00;7.10;;;27.90;99.90;;;;;;5054772;28;20300;-25
2023/08/24 09:11:02;;;;;;;16.35;5.18;;;27.90;99.90;;;;;;5049932;28;20308;-25
2023/08/24 09:13:33;;;;;;;18.20;5.90;;;28.00;99.90;;;;;;5068735;28;20200;-25
2023/08/24 09:16:05;;;;;;;33.20;7.55;;;28.00;99.90;;;;;;5061232;28;20634;-25
2023/08/24 09:18:39;;;;;;;23.98;5.85;;;28.00;99.90;;;;;;5074102;28;20199;-25
2023/08/24 09:21:11;;;;;;;24.58;6.07;;;28.10;99.90;;;;;;5084575;28;20215;-25
2023/08/24 09:23:45;;;;;;;16.05;4.75;;;28.20;99.90;;;;;;5082520;28;20230;-24
2023/08/24 09:26:12;;;;;;;19.15;5.13;;;28.20;99.90;;;;;;5057046;28;20204;-25
2023/08/24 09:28:47;;;;;;;15.45;5.32;;;28.20;99.90;;;;;;5066431;28;20216;-25
2023/08/24 09:31:14;;;;;;;17.20;4.60;;;28.20;99.90;;;;;;5061542;28;20223;-24
2023/08/24 09:33:46;;;;;;;6.07;3.67;;;28.20;99.90;;;;;;5064513;28;20197;-24
2023/08/24 09:36:17;;;;;;;5.95;3.83;;;28.20;99.90;;;;;;5051917;28;20215;-24
2023/08/24 09:38:48;;;;;;;7.15;3.80;;;28.20;99.90;;;;;;5049636;28;20774;-24
2023/08/24 09:41:16;;;;;;;6.13;3.50;;;28.10;99.90;;;;;;5074580;28;20208;-24
2023/08/24 09:43:45;;;;;;;6.22;3.50;;;28.10;99.90;;;;;;5069265;28;20665;-25
2023/08/24 09:46:22;;;;;;;8.05;3.45;;;28.00;99.90;;;;;;5045946;28;20320;-24
2023/08/24 09:48:58;;;;;;;8.07;3.67;;;28.00;99.90;;;;;;5047588;28;20228;-24
2023/08/24 09:51:27;;;;;;;5.57;3.80;;;28.00;99.90;;;;;;5063571;28;20604;-24
2023/08/24 09:54:00;;;;;;;8.50;3.85;;;28.00;99.90;;;;;;5057133;28;20202;-24
2023/08/24 09:56:32;;;;;;;9.88;3.70;;;27.90;99.90;;;;;;5063988;28;20253;-24
2023/08/24 09:59:05;;;;;;;10.60;3.80;;;27.90;99.90;;;;;;5060397;28;20208;-24
2023/08/24 10:01:32;;;;;;;6.53;3.45;;;27.80;99.90;;;;;;5055332;28;20311;-24
2023/08/24 10:04:05;;;;;;;5.00;3.75;;;27.80;99.90;;;;;;5059222;28;20200;-24
2023/08/24 10:06:36;;;;;;;6.10;3.67;;;27.70;99.90;;;;;;5056572;28;20250;-25
2023/08/24 10:09:08;;;;;;;8.40;4.18;;;27.60;99.90;;;;;;5057708;28;20806;-24
2023/08/24 10:11:44;;;;;;;9.50;4.00;;;27.40;99.90;;;;;;5079707;28;20740;-25
2023/08/24 10:14:32;;;;;;;8.85;4.22;;;27.30;99.90;;;;;;5055309;28;20474;-24
2023/08/24 10:17:04;;;;;;;8.45;4.32;;;27.30;99.90;;;;;;5058669;28;20227;-24
2023/08/24 10:19:36;;;;;;;5.63;4.07;;;27.10;99.90;;;;;;5065549;28;20597;-25
2023/08/24 10:22:07;;;;;;;6.53;4.15;;;27.00;99.90;;;;;;5048266;28;20211;-25
2023/08/24 10:24:37;;;;;;;6.20;3.97;;;26.90;99.90;;;;;;5053701;28;20199;-25
2023/08/24 10:27:08;;;;;;;6.35;4.25;;;26.80;99.90;;;;;;5076319;28;20652;-25
2023/08/24 10:29:40;;;;;;;9.13;4.03;;;26.70;99.90;;;;;;5066216;28;20265;-25
2023/08/24 10:32:11;;;;;;;9.30;4.30;;;26.70;99.90;;;;;;5049925;28;20220;-25
2023/08/24 10:34:41;;;;;;;6.57;4.30;;;26.60;99.90;;;;;;5052862;28;20599;-26
2023/08/24 10:37:11;;;;;;;10.00;4.82;;;26.50;99.90;;;;;;5061460;28;20211;-25
2023/08/24 10:39:47;;;;;;;10.68;4.60;;;26.40;99.90;;;;;;5063739;28;20297;-26
2023/08/24 10:42:15;;;;;;;9.13;3.80;;;26.40;99.90;;;;;;5046290;28;20216;-25
2023/08/24 10:44:49;;;;;;;9.55;4.75;;;26.30;99.90;;;;;;5055501;28;20250;-25
2023/08/24 10:47:22;;;;;;;9.75;4.72;;;26.30;99.90;;;;;;5061694;28;20210;-25
2023/08/24 10:49:56;;;;;;;8.82;4.32;;;26.20;99.90;;;;;;5052384;28;20698;-25
2023/08/24 10:52:25;;;;;;;8.65;4.43;;;26.20;99.90;;;;;;5047316;28;20220;-31
2023/08/24 10:54:55;;;;;;;8.05;4.65;;;26.10;99.90;;;;;;5054540;28;20196;-32
2023/08/24 10:57:22;;;;;;;7.47;4.18;;;26.10;99.90;;;;;;5080954;28;20214;-32
2023/08/24 11:00:07;;;;;;;8.57;4.20;;;26.10;99.90;;;;;;5059322;28;20639;-32
2023/08/24 11:02:47;;;;;;;7.47;4.35;;;26.10;99.90;;;;;;5060862;28;20229;-32
2023/08/24 11:05:22;;;;;;;9.88;4.55;;;26.10;99.90;;;;;;5057446;28;20685;-32
2023/08/24 11:08:00;;;;;;;5.95;4.00;;;26.10;99.90;;;;;;5054559;28;20612;-33
2023/08/24 11:10:48;;;;;;;5.82;4.22;;;26.10;99.90;;;;;;5057451;28;20743;-32
2023/08/24 11:13:27;;;;;;;7.28;4.22;;;26.20;99.90;;;;;;5046487;28;20559;-32
2023/08/24 11:15:58;;;;;;;6.03;4.05;;;26.30;99.90;;;;;;5047119;28;20227;-32
2023/08/24 11:18:31;;;;;;;11.70;4.47;;;26.30;99.90;;;;;;5052906;28;20204;-33
2023/08/24 11:21:09;;;;;;;8.13;4.80;;;26.30;99.90;;;;;;5063446;28;20656;-33
2023/08/24 11:23:37;;;;;;;6.40;4.00;;;26.40;99.90;;;;;;5070074;28;20294;-32
2023/08/24 11:26:04;;;;;;;6.72;3.92;;;26.40;99.90;;;;;;5053618;28;20229;-33
2023/08/24 11:28:32;;;;;;;6.78;4.60;;;26.50;99.90;;;;;;5063965;28;20214;-32
2023/08/24 11:30:59;;;;;;;6.75;4.55;;;26.50;99.90;;;;;;5058732;28;20304;-32
2023/08/24 11:33:31;;;;;;;10.60;4.90;;;26.60;99.90;;;;;;5047207;28;20227;-25
2023/08/24 11:36:02;;;;;;;8.48;4.50;;;26.60;99.90;;;;;;5064705;28;20291;-25
2023/08/24 11:38:40;;;;;;;7.13;4.15;;;26.60;99.90;;;;;;5053606;28;20230;-25
2023/08/24 11:41:15;;;;;;;7.32;4.38;;;26.70;99.90;;;;;;5077565;28;20677;-25
2023/08/24 11:43:43;;;;;;;7.47;4.38;;;26.70;99.90;;;;;;5065099;28;20685;-25
2023/08/24 11:46:15;;;;;;;7.35;4.60;;;26.70;99.90;;;;;;5048330;28;20231;-25
2023/08/24 11:48:45;;;;;;;6.45;4.63;;;26.80;99.90;;;;;;5066007;28;20225;-25
2023/08/24 11:51:13;;;;;;;7.00;4.28;;;26.80;99.90;;;;;;5056811;28;20234;-25
2023/08/24 11:53:48;;;;;;;5.85;4.00;;;26.80;99.90;;;;;;5060868;28;20196;-32
2023/08/24 11:56:18;;;;;;;14.32;4.88;;;26.80;99.90;;;;;;5060328;28;20420;-32
2023/08/24 11:58:53;;;;;;;7.80;4.60;;;26.80;99.90;;;;;;5081414;28;20225;-32
2023/08/24 12:01:20;;;;;;;7.45;4.38;;;26.90;99.90;;;;;;5070964;28;20200;-32
2023/08/24 12:03:50;;;;;;;8.23;4.38;;;26.90;99.90;;;;;;5051052;28;20215;-32
2023/08/24 12:06:18;;;;;;;8.00;4.20;;;26.90;99.90;;;;;;5061008;28;20211;-33
2023/08/24 12:08:48;;;;;;;7.05;4.40;;;26.90;99.90;;;;;;5051247;28;20235;-32
2023/08/24 12:11:25;;;;;;;7.05;4.35;;;26.90;99.90;;;;;;5057160;28;20245;-32
2023/08/24 12:13:57;;;;;;;5.82;3.83;;;26.90;99.90;;;;;;5063978;28;20222;-32
2023/08/24 12:16:27;;;;;;;5.53;3.55;;;26.90;99.90;;;;;;5052394;28;20227;-32
2023/08/24 12:19:00;;;;;;;7.30;3.90;;;26.90;99.90;;;;;;5061383;28;20219;-32
2023/08/24 12:21:30;;;;;;;6.97;3.92;;;26.90;99.90;;;;;;5081109;28;20206;-32
2023/08/24 12:24:02;;;;;;;7.07;4.18;;;26.90;99.90;;;;;;5066334;28;20207;-32
2023/08/24 12:26:29;;;;;;;8.57;4.50;;;26.90;99.90;;;;;;5076592;28;20203;-32
2023/08/24 12:29:02;;;;;;;6.70;4.72;;;26.90;99.90;;;;;;5061688;28;20204;-32
2023/08/24 12:31:30;;;;;;;5.85;4.40;;;26.90;99.90;;;;;;5062543;28;20722;-32
2023/08/24 12:34:03;;;;;;;5.45;4.30;;;26.90;99.90;;;;;;5045921;28;20204;-32
2023/08/24 12:36:36;;;;;;;7.90;4.72;;;26.90;99.90;;;;;;5045712;28;20210;-32
2023/08/24 12:39:10;;;;;;;6.60;4.65;;;26.80;99.90;;;;;;5076000;28;20191;-31
2023/08/24 12:41:39;;;;;;;6.53;4.45;;;26.80;99.90;;;;;;5050259;28;20256;-32
2023/08/24 12:44:07;;;;;;;5.97;3.90;;;26.80;99.90;;;;;;5062267;28;20660;-31
2023/08/24 12:46:39;;;;;;;5.22;3.72;;;26.70;99.90;;;;;;5069810;28;20200;-32
2023/08/24 12:49:09;;;;;;;7.38;4.20;;;26.70;99.90;;;;;;5049546;28;20204;-31
2023/08/24 12:51:41;;;;;;;4.45;3.60;;;26.70;99.90;;;;;;5068093;28;20231;-32
2023/08/24 12:54:12;;;;;;;6.38;3.75;;;26.70;99.90;;;;;;5082431;28;20204;-32
2023/08/24 12:56:42;;;;;;;4.88;3.38;;;26.60;99.90;;;;;;5065317;28;20200;-31
2023/08/24 12:59:14;;;;;;;6.05;3.10;;;26.50;99.90;;;;;;5047744;28;20718;-32
2023/08/24 13:01:44;;;;;;;5.20;3.35;;;26.50;99.90;;;;;;5066472;28;20667;-31